createdAt,value
2018-03-11T00:01:45.235Z,47.67
2018-03-11T00:04:16.073Z,52.70
2018-03-11T00:06:47.371Z,169.94
2018-03-11T00:09:18.173Z,267.13
2018-03-11T00:11:48.668Z,264.45
2018-03-11T00:14:19.431Z,194.60
2018-03-11T00:16:50.155Z,109.95
2018-03-11T00:19:21.566Z,72.94
2018-03-11T00:21:52.165Z,67.20
2018-03-11T00:24:23.530Z,55.26
2018-03-11T00:26:54.226Z,43.15
2018-03-11T00:29:25.228Z,47.17
2018-03-11T00:31:56.656Z,36.50
2018-03-11T00:34:27.387Z,35.30
2018-03-11T00:36:57.768Z,37.90
2018-03-11T00:39:28.484Z,36.97
2018-03-11T00:41:59.673Z,41.63
2018-03-11T00:44:30.345Z,47.83
2018-03-11T00:47:01.060Z,71.70
2018-03-11T00:49:32.536Z,127.88
2018-03-11T00:52:03.170Z,179.55
2018-03-11T00:54:34.232Z,236.85
2018-03-11T00:57:05.088Z,104.55
2018-03-11T00:59:36.432Z,77.10
2018-03-11T01:02:07.937Z,62.42
2018-03-11T01:04:38.488Z,56.52
2018-03-11T01:07:09.087Z,48.70
2018-03-11T01:09:40.525Z,54.66
2018-03-11T01:12:11.057Z,55.90
2018-03-11T01:14:42.090Z,57.15
2018-03-11T01:17:13.427Z,52.40
2018-03-11T01:19:45.377Z,50.65
2018-03-11T01:22:15.950Z,49.36
2018-03-11T01:24:46.646Z,48.03
2018-03-11T01:27:18.435Z,50.36
2018-03-11T01:29:48.753Z,46.78
2018-03-11T01:32:18.565Z,49.72
2018-03-11T01:34:49.256Z,52.53
2018-03-11T01:37:20.118Z,47.90
2018-03-11T01:39:50.667Z,49.70
2018-03-11T01:42:21.240Z,48.10
2018-03-11T01:44:52.127Z,46.90
2018-03-11T01:47:22.575Z,49.85
2018-03-11T01:49:53.288Z,45.05
2018-03-11T01:52:24.031Z,49.35
2018-03-11T01:54:55.490Z,52.98
2018-03-11T01:57:26.060Z,55.40
2018-03-11T01:59:56.616Z,54.15
2018-03-11T02:02:27.227Z,53.97
2018-03-11T02:04:58.200Z,59.05
2018-03-11T02:07:28.068Z,68.90
2018-03-11T02:09:58.746Z,68.32
2018-03-11T02:12:29.611Z,60.58
2018-03-11T02:15:00.118Z,57.20
2018-03-11T02:17:31.601Z,63.80
2018-03-11T02:20:03.648Z,66.42
2018-03-11T02:22:34.244Z,57.08
2018-03-11T02:25:05.172Z,56.28
2018-03-11T02:27:36.228Z,57.50
2018-03-11T02:30:07.136Z,61.37
2018-03-11T02:32:38.397Z,54.70
2018-03-11T02:35:09.079Z,61.08
2018-03-11T02:37:40.386Z,64.22
2018-03-11T02:40:11.192Z,68.93
2018-03-11T02:42:42.142Z,76.62
2018-03-11T02:45:13.084Z,71.53
2018-03-11T02:47:44.096Z,81.07
2018-03-11T02:50:14.704Z,83.87
2018-03-11T02:52:44.914Z,77.96
2018-03-11T02:55:15.578Z,75.93
2018-03-11T02:57:46.201Z,77.22
2018-03-11T03:00:17.164Z,81.65
2018-03-11T03:02:48.145Z,79.78
2018-03-11T03:05:19.555Z,84.74
2018-03-11T03:07:49.435Z,83.45
2018-03-11T03:10:20.271Z,81.78
2018-03-11T03:12:51.103Z,94.22
2018-03-11T03:15:22.634Z,85.96
2018-03-11T03:17:53.173Z,84.72
2018-03-11T03:20:23.752Z,89.35
2018-03-11T03:22:54.364Z,82.93
2018-03-11T03:25:25.329Z,80.32
2018-03-11T03:27:57.039Z,75.36
2018-03-11T03:30:27.421Z,76.57
2018-03-11T03:32:59.053Z,73.66
2018-03-11T03:35:29.865Z,70.13
2018-03-11T03:38:00.555Z,73.50
2018-03-11T03:40:31.220Z,76.75
2018-03-11T03:43:02.180Z,73.93
2018-03-11T03:45:34.041Z,74.16
2018-03-11T03:48:07.610Z,76.66
2018-03-11T03:50:36.802Z,68.95
2018-03-11T03:53:05.976Z,78.67
2018-03-11T03:55:36.585Z,75.30
2018-03-11T03:58:07.173Z,76.93
2018-03-11T04:00:38.648Z,68.32
2018-03-11T04:03:09.391Z,71.20
2018-03-11T04:05:39.769Z,67.50
2018-03-11T04:08:11.049Z,73.47
2018-03-11T04:10:42.523Z,64.16
2018-03-11T04:13:13.744Z,63.95
2018-03-11T04:15:44.456Z,61.53
2018-03-11T04:18:15.070Z,64.37
2018-03-11T04:20:45.879Z,67.87
2018-03-11T04:23:17.474Z,70.74
2018-03-11T04:25:46.717Z,69.40
2018-03-11T04:28:18.296Z,101.57
2018-03-11T04:30:49.068Z,94.78
2018-03-11T04:33:20.482Z,81.34
2018-03-11T04:35:51.289Z,71.65
2018-03-11T04:38:22.156Z,65.47
2018-03-11T04:40:53.164Z,66.30
2018-03-11T04:43:24.087Z,95.25
2018-03-11T04:45:55.476Z,212.50
2018-03-11T04:48:26.470Z,286.12
2018-03-11T04:50:57.276Z,138.73
2018-03-11T04:53:27.761Z,89.70
2018-03-11T04:55:58.406Z,85.22
2018-03-11T04:58:29.172Z,140.50
2018-03-11T05:01:00.585Z,144.06
2018-03-11T05:03:30.848Z,99.84
2018-03-11T05:06:02.696Z,77.50
2018-03-11T05:08:32.960Z,67.06
2018-03-11T05:11:03.612Z,64.18
2018-03-11T05:13:34.281Z,64.20
2018-03-11T05:16:05.922Z,70.94
2018-03-11T05:18:36.490Z,70.28
2018-03-11T05:21:07.213Z,72.30
2018-03-11T05:23:38.155Z,135.48
2018-03-11T05:26:09.172Z,151.73
2018-03-11T05:28:40.493Z,117.96
2018-03-11T05:31:12.426Z,82.82
2018-03-11T05:33:42.788Z,66.86
2018-03-11T05:36:13.453Z,67.82
2018-03-11T05:38:44.113Z,63.00
2018-03-11T05:41:15.768Z,63.16
2018-03-11T05:43:46.379Z,65.12
2018-03-11T05:46:17.268Z,63.60
2018-03-11T05:48:48.345Z,60.65
2018-03-11T05:51:19.503Z,58.13
2018-03-11T05:53:50.170Z,60.25
2018-03-11T05:56:21.194Z,59.03
2018-03-11T05:58:51.090Z,59.17
2018-03-11T06:01:21.856Z,60.53
2018-03-11T06:03:53.444Z,60.26
2018-03-11T06:06:24.497Z,66.95
2018-03-11T06:08:54.788Z,87.42
2018-03-11T06:11:25.528Z,78.35
2018-03-11T06:13:56.185Z,68.47
2018-03-11T06:16:27.607Z,70.52
2018-03-11T06:18:57.469Z,69.03
2018-03-11T06:21:28.825Z,66.36
2018-03-11T06:23:58.748Z,82.45
2018-03-11T06:26:29.471Z,87.65
2018-03-11T06:28:59.488Z,101.03
2018-03-11T06:31:30.122Z,100.80
2018-03-11T06:34:00.692Z,88.05
2018-03-11T06:36:31.338Z,80.95
2018-03-11T06:39:02.198Z,77.07
2018-03-11T06:41:33.538Z,70.00
2018-03-11T06:44:04.368Z,67.45
2018-03-11T06:46:35.319Z,68.72
2018-03-11T06:49:05.814Z,75.60
2018-03-11T06:51:37.453Z,81.40
2018-03-11T06:54:08.228Z,92.20
2018-03-11T06:56:39.713Z,92.46
2018-03-11T06:59:10.332Z,76.57
2018-03-11T07:01:45.889Z,74.62
2018-03-11T07:04:23.088Z,73.57
2018-03-11T07:06:52.439Z,73.70
2018-03-11T07:09:21.653Z,71.30
2018-03-11T07:11:50.785Z,76.93
2018-03-11T07:14:19.979Z,68.14
2018-03-11T07:16:57.313Z,70.20
2018-03-11T07:19:30.756Z,68.53
2018-03-11T07:22:07.502Z,51.22
2018-03-11T07:24:44.621Z,41.92
2018-03-11T07:27:13.432Z,38.97
2018-03-11T07:29:42.625Z,38.13
2018-03-11T07:32:11.448Z,41.13
2018-03-11T07:34:40.573Z,42.35
2018-03-11T07:37:09.742Z,44.65
2018-03-11T07:39:38.768Z,41.87
2018-03-11T07:42:07.885Z,42.75
2018-03-11T07:44:37.096Z,39.35
2018-03-11T07:47:06.441Z,39.08
2018-03-11T07:49:35.644Z,40.28
2018-03-11T07:52:04.923Z,38.20
2018-03-11T07:54:34.762Z,36.90
2018-03-11T07:57:03.963Z,34.83
2018-03-11T07:59:33.613Z,40.47
2018-03-11T08:02:05.677Z,31.63
2018-03-11T08:04:34.890Z,32.86
2018-03-11T08:07:04.827Z,32.05
2018-03-11T08:09:35.512Z,34.40
2018-03-11T08:12:06.173Z,27.55
2018-03-11T08:14:37.088Z,29.50
2018-03-11T08:17:07.704Z,32.85
2018-03-11T08:19:38.420Z,34.38
2018-03-11T08:22:09.223Z,30.83
2018-03-11T08:24:41.509Z,31.48
2018-03-11T08:27:11.457Z,31.25
2018-03-11T08:29:42.241Z,31.00
2018-03-11T08:32:12.473Z,33.64
2018-03-11T08:34:43.327Z,28.10
2018-03-11T08:37:14.697Z,33.08
2018-03-11T08:39:45.331Z,30.45
2018-03-11T08:42:16.565Z,32.83
2018-03-11T08:44:47.233Z,33.80
2018-03-11T08:47:19.103Z,28.02
2018-03-11T08:49:49.937Z,32.60
2018-03-11T08:52:20.347Z,32.83
2018-03-11T08:54:51.975Z,32.75
2018-03-11T08:57:22.508Z,29.46
2018-03-11T08:59:53.076Z,30.42
2018-03-11T09:02:24.225Z,32.72
2018-03-11T09:04:55.704Z,32.40
2018-03-11T09:07:24.588Z,34.87
2018-03-11T09:09:56.409Z,35.52
2018-03-11T09:12:27.880Z,29.76
2018-03-11T09:14:59.317Z,33.60
2018-03-11T09:17:29.836Z,27.20
2018-03-11T09:20:00.277Z,26.54
2018-03-11T09:22:30.941Z,27.62
2018-03-11T09:25:01.523Z,26.24
2018-03-11T09:27:32.316Z,24.37
2018-03-11T09:30:03.169Z,31.05
2018-03-11T09:32:35.347Z,26.14
2018-03-11T09:35:04.844Z,25.94
2018-03-11T09:37:35.498Z,23.27
2018-03-11T09:40:06.645Z,23.87
2018-03-11T09:42:39.248Z,22.98
2018-03-11T09:45:08.853Z,27.35
2018-03-11T09:47:39.456Z,25.42
2018-03-11T09:50:10.219Z,23.70
2018-03-11T09:52:40.806Z,24.65
2018-03-11T09:55:11.503Z,22.27
2018-03-11T09:57:42.423Z,27.98
2018-03-11T10:00:13.311Z,29.98
2018-03-11T10:02:44.088Z,27.40
2018-03-11T10:05:15.571Z,27.30
2018-03-11T10:07:46.364Z,23.90
2018-03-11T10:10:17.277Z,30.10
2018-03-11T10:12:48.278Z,29.15
2018-03-11T10:15:19.225Z,34.45
2018-03-11T10:17:50.185Z,30.60
2018-03-11T10:20:21.227Z,28.55
2018-03-11T10:22:52.570Z,28.38
2018-03-11T10:25:23.197Z,27.48
2018-03-11T10:27:54.203Z,28.20
2018-03-11T10:30:25.196Z,25.85
2018-03-11T10:32:56.465Z,31.10
2018-03-11T10:35:27.269Z,28.62
2018-03-11T10:37:58.135Z,26.30
2018-03-11T10:40:29.637Z,24.96
2018-03-11T10:43:00.186Z,24.58
2018-03-11T10:45:31.215Z,25.50
2018-03-11T10:48:02.105Z,25.85
2018-03-11T10:50:33.488Z,25.90
2018-03-11T10:53:04.154Z,28.67
2018-03-11T10:55:35.896Z,28.94
2018-03-11T10:58:06.510Z,33.38
2018-03-11T11:00:42.649Z,29.37
2018-03-11T11:03:28.116Z,27.83
2018-03-11T11:06:03.670Z,26.83
2018-03-11T11:08:33.094Z,33.03
2018-03-11T11:11:01.967Z,24.63
2018-03-11T11:13:30.945Z,29.27
2018-03-11T11:16:00.068Z,25.97
2018-03-11T11:18:29.599Z,24.90
2018-03-11T11:20:58.749Z,29.43
2018-03-11T11:23:29.050Z,23.00
2018-03-11T11:25:59.225Z,21.42
2018-03-11T11:28:28.487Z,19.33
2018-03-11T11:30:58.283Z,25.93
2018-03-11T11:33:28.695Z,19.30
2018-03-11T11:35:57.563Z,18.10
2018-03-11T11:38:26.420Z,16.00
2018-03-11T11:40:55.314Z,21.70
2018-03-11T11:43:24.186Z,18.67
2018-03-11T11:45:53.065Z,18.87
2018-03-11T11:48:22.007Z,21.30
2018-03-11T11:50:52.596Z,18.08
2018-03-11T11:53:23.543Z,19.83
2018-03-11T11:55:54.212Z,16.83
2018-03-11T11:58:24.744Z,19.25
2018-03-11T12:00:55.352Z,15.20
2018-03-11T12:03:26.216Z,14.02
2018-03-11T12:05:57.083Z,18.15
2018-03-11T12:08:28.462Z,16.16
2018-03-11T12:10:59.280Z,17.17
2018-03-11T12:13:30.256Z,13.82
2018-03-11T12:16:01.136Z,14.90
2018-03-11T12:18:32.177Z,18.75
2018-03-11T12:21:03.195Z,16.45
2018-03-11T12:23:34.240Z,16.87
2018-03-11T12:26:05.151Z,16.30
2018-03-11T12:28:36.555Z,17.04
2018-03-11T12:31:07.190Z,18.02
2018-03-11T12:33:37.782Z,16.95
2018-03-11T12:36:08.362Z,16.73
2018-03-11T12:38:38.766Z,14.28
2018-03-11T12:41:09.403Z,14.80
2018-03-11T12:43:40.173Z,14.10
2018-03-11T12:46:11.155Z,17.35
2018-03-11T12:48:42.271Z,15.50
2018-03-11T12:51:13.167Z,17.15
2018-03-11T12:53:43.937Z,15.80
2018-03-11T12:56:14.466Z,12.30
2018-03-11T12:58:45.191Z,16.33
2018-03-11T13:01:16.159Z,14.60
2018-03-11T13:03:47.540Z,14.58
2018-03-11T13:06:18.151Z,11.20
2018-03-11T13:08:49.153Z,15.23
2018-03-11T13:11:19.732Z,14.10
2018-03-11T13:13:50.425Z,10.75
2018-03-11T13:16:20.878Z,12.54
2018-03-11T13:18:51.536Z,12.68
2018-03-11T13:21:22.209Z,10.82
2018-03-11T13:23:53.286Z,10.32
2018-03-11T13:26:24.156Z,11.98
2018-03-11T13:28:55.191Z,13.20
2018-03-11T13:31:28.254Z,11.88
2018-03-11T13:34:18.746Z,16.02
2018-03-11T13:36:47.855Z,14.77
2018-03-11T13:39:27.768Z,16.53
2018-03-11T13:41:56.788Z,15.10
2018-03-11T13:44:25.906Z,16.47
2018-03-11T13:47:09.640Z,12.97
2018-03-11T13:49:38.820Z,18.03
2018-03-11T13:52:18.688Z,22.20
2018-03-11T13:54:47.738Z,18.63
2018-03-11T14:00:33.543Z,17.50
2018-03-11T14:03:02.731Z,13.60
2018-03-11T14:05:31.801Z,14.53
2018-03-11T14:08:00.796Z,20.43
2018-03-11T14:10:29.921Z,13.67
2018-03-11T14:12:58.769Z,17.83
2018-03-11T14:15:27.910Z,16.83
2018-03-11T14:17:56.871Z,15.80
2018-03-11T14:20:25.786Z,12.73
2018-03-11T14:22:54.880Z,12.93
2018-03-11T14:25:23.877Z,11.40
2018-03-11T14:27:52.873Z,15.73
2018-03-11T14:30:21.843Z,11.17
2018-03-11T14:32:50.945Z,15.50
2018-03-11T14:35:19.852Z,13.13
2018-03-11T14:37:48.837Z,12.80
2018-03-11T14:40:17.822Z,14.37
2018-03-11T14:42:46.771Z,10.97
2018-03-11T14:45:15.722Z,7.83
2018-03-11T14:47:44.859Z,10.50
2018-03-11T14:50:13.750Z,7.83
2018-03-11T14:52:42.692Z,10.73
2018-03-11T14:55:11.927Z,10.83
2018-03-11T14:57:40.800Z,16.50
2018-03-11T15:00:09.820Z,27.00
2018-03-11T15:02:38.864Z,9.10
2018-03-11T15:05:08.664Z,13.83
2018-03-11T15:07:37.771Z,11.33
2018-03-11T15:10:06.907Z,12.63
2018-03-11T15:12:35.818Z,17.90
2018-03-11T15:15:04.945Z,17.90
2018-03-11T15:17:33.870Z,35.00
2018-03-11T15:20:02.765Z,31.17
2018-03-11T15:22:31.816Z,40.67
2018-03-11T15:25:00.775Z,21.23
2018-03-11T15:27:29.756Z,185.30
2018-03-11T15:29:58.916Z,78.17
2018-03-11T15:32:27.878Z,62.47
2018-03-11T15:34:57.595Z,58.27
2018-03-11T15:37:26.631Z,44.72
2018-03-11T15:39:56.611Z,44.95
2018-03-11T15:42:25.488Z,95.47
2018-03-11T15:44:55.924Z,48.23
2018-03-11T15:47:24.929Z,49.10
2018-03-11T15:49:54.189Z,33.63
2018-03-11T15:52:23.726Z,45.77
2018-03-11T15:54:53.748Z,53.65
2018-03-11T15:57:23.182Z,37.60
2018-03-11T15:59:52.654Z,31.13
2018-03-11T16:02:24.048Z,31.06
2018-03-11T16:04:53.958Z,47.47
2018-03-11T16:07:22.839Z,21.12
2018-03-11T16:09:52.553Z,37.88
2018-03-11T16:12:23.275Z,24.30
2018-03-11T16:14:59.413Z,25.45
2018-03-11T16:17:28.240Z,28.58
2018-03-11T16:19:57.104Z,17.37
2018-03-11T16:22:27.842Z,16.75
2018-03-11T16:24:58.884Z,17.98
2018-03-11T16:27:29.678Z,19.80
2018-03-11T16:30:00.402Z,25.10
2018-03-11T16:32:31.389Z,21.40
2018-03-11T16:35:01.197Z,24.50
2018-03-11T16:37:33.007Z,32.00
2018-03-11T16:40:05.515Z,34.76
2018-03-11T16:42:36.023Z,31.32
2018-03-11T16:45:05.740Z,22.23
2018-03-11T16:47:37.294Z,24.37
2018-03-11T16:50:07.142Z,15.94
2018-03-11T16:52:38.603Z,22.35
2018-03-11T16:55:08.392Z,17.10
2018-03-11T16:57:39.420Z,15.70
2018-03-11T17:00:10.233Z,16.23
2018-03-11T17:02:42.105Z,15.90
2018-03-11T17:05:13.274Z,16.95
2018-03-11T17:07:44.565Z,15.18
2018-03-11T17:10:14.283Z,20.67
2018-03-11T17:12:46.315Z,19.76
2018-03-11T17:15:19.477Z,20.35
2018-03-11T17:17:48.490Z,17.43
2018-03-11T17:20:19.059Z,22.86
2018-03-11T17:22:49.640Z,24.83
2018-03-11T17:25:21.133Z,26.50
2018-03-11T17:27:51.890Z,28.12
2018-03-11T17:30:23.277Z,40.78
2018-03-11T17:32:53.837Z,49.90
2018-03-11T17:35:24.609Z,37.25
2018-03-11T17:37:55.452Z,29.23
2018-03-11T17:40:26.306Z,27.33
2018-03-11T17:42:58.876Z,26.62
2018-03-11T17:45:30.806Z,28.76
2018-03-11T17:48:01.338Z,30.35
2018-03-11T17:50:31.886Z,31.28
2018-03-11T17:53:01.858Z,39.83
2018-03-11T17:55:32.603Z,56.17
2018-03-11T17:58:03.748Z,37.03
2018-03-11T18:00:33.365Z,33.55
2018-03-11T18:03:04.201Z,37.13
2018-03-11T18:05:35.392Z,38.92
2018-03-11T18:08:06.413Z,54.70
2018-03-11T18:10:36.931Z,75.74
2018-03-11T18:13:07.779Z,49.20
2018-03-11T18:15:38.624Z,64.72
2018-03-11T18:18:09.381Z,58.35
2018-03-11T18:20:40.230Z,55.28
2018-03-11T18:23:11.265Z,53.58
2018-03-11T18:25:41.400Z,53.10
2018-03-11T18:28:11.994Z,46.47
2018-03-11T18:30:42.928Z,46.58
2018-03-11T18:33:14.024Z,81.72
2018-03-11T18:35:44.891Z,45.38
2018-03-11T18:38:15.980Z,41.08
2018-03-11T18:40:46.888Z,40.58
2018-03-11T18:43:17.982Z,43.47
2018-03-11T18:45:49.025Z,37.83
2018-03-11T18:48:19.962Z,42.60
2018-03-11T18:50:50.957Z,46.95
2018-03-11T18:53:21.979Z,58.40
2018-03-11T18:55:52.985Z,65.28
2018-03-11T18:58:23.929Z,71.97
2018-03-11T19:00:54.950Z,77.05
2018-03-11T19:03:25.989Z,43.58
2018-03-11T19:05:56.975Z,39.55
2018-03-11T19:08:27.820Z,42.47
2018-03-11T19:10:58.855Z,40.33
2018-03-11T19:13:29.919Z,43.10
2018-03-11T19:16:00.872Z,53.47
2018-03-11T19:18:31.926Z,50.15
2018-03-11T19:21:02.916Z,41.75
2018-03-11T19:23:33.979Z,47.15
2018-03-11T19:26:04.829Z,45.08
2018-03-11T19:28:36.233Z,44.15
2018-03-11T19:31:06.954Z,43.87
2018-03-11T19:33:38.004Z,48.65
2018-03-11T19:36:08.894Z,49.08
2018-03-11T19:38:40.032Z,50.33
2018-03-11T19:41:10.928Z,54.22
2018-03-11T19:43:42.125Z,54.28
2018-03-11T19:46:12.864Z,53.13
2018-03-11T19:48:44.073Z,57.25
2018-03-11T19:51:15.193Z,61.50
2018-03-11T19:53:47.305Z,60.42
2018-03-11T19:56:19.239Z,56.22
2018-03-11T19:58:49.933Z,56.03
2018-03-11T20:01:20.679Z,57.16
2018-03-11T20:03:52.465Z,60.60
2018-03-11T20:06:24.320Z,66.62
2018-03-11T20:08:54.200Z,58.60
2018-03-11T20:11:25.038Z,42.47
2018-03-11T20:13:57.005Z,36.23
2018-03-11T20:16:26.889Z,37.70
2018-03-11T20:18:57.732Z,23.65
2018-03-11T20:21:28.489Z,22.15
2018-03-11T20:23:59.159Z,26.96
2018-03-11T20:26:29.889Z,31.40
2018-03-11T20:28:59.978Z,24.65
2018-03-11T20:31:30.785Z,39.05
2018-03-11T20:34:01.587Z,34.28
2018-03-11T20:36:32.464Z,35.47
2018-03-11T20:39:03.217Z,29.37
2018-03-11T20:41:34.524Z,38.96
2018-03-11T20:44:05.231Z,35.10
2018-03-11T20:46:35.680Z,31.17
2018-03-11T20:49:06.321Z,26.85
2018-03-11T20:51:37.180Z,30.30
2018-03-11T20:54:07.740Z,33.74
2018-03-11T20:56:38.348Z,38.78
2018-03-11T20:59:09.211Z,40.22
2018-03-11T21:01:39.750Z,43.05
2018-03-11T21:04:10.548Z,39.22
2018-03-11T21:06:41.169Z,38.25
2018-03-11T21:09:12.580Z,41.12
2018-03-11T21:11:43.219Z,78.97
2018-03-11T21:14:13.737Z,87.43
2018-03-11T21:16:44.333Z,62.35
2018-03-11T21:19:15.266Z,55.90
2018-03-11T21:21:46.261Z,55.45
2018-03-11T21:24:17.156Z,53.80
2018-03-11T21:26:48.419Z,54.08
2018-03-11T21:29:19.260Z,52.08
2018-03-11T21:31:49.804Z,50.75
2018-03-11T21:34:19.847Z,54.67
2018-03-11T21:36:51.399Z,52.26
2018-03-11T21:39:21.961Z,54.38
2018-03-11T21:41:53.503Z,66.88
2018-03-11T21:44:24.328Z,100.65
2018-03-11T21:46:55.655Z,158.92
2018-03-11T21:49:26.496Z,128.05
2018-03-11T21:51:57.385Z,179.43
2018-03-11T21:54:27.802Z,97.72
2018-03-11T21:56:57.848Z,81.77
2018-03-11T21:59:28.877Z,56.72
2018-03-11T22:01:59.752Z,55.67
2018-03-11T22:04:31.103Z,58.53
2018-03-11T22:07:02.432Z,62.76
2018-03-11T22:09:33.246Z,51.63
2018-03-11T22:12:04.178Z,52.80
2018-03-11T22:14:35.292Z,56.25
2018-03-11T22:17:06.537Z,63.28
2018-03-11T22:19:37.321Z,58.17
2018-03-11T22:22:08.500Z,191.18
2018-03-11T22:24:41.373Z,79.25
2018-03-11T22:27:10.488Z,49.05
2018-03-11T22:29:41.426Z,47.33
2018-03-11T22:32:12.065Z,29.75
2018-03-11T22:34:42.471Z,25.77
2018-03-11T22:37:13.200Z,27.80
2018-03-11T22:39:44.518Z,23.46
2018-03-11T22:42:15.152Z,26.85
2018-03-11T22:44:45.798Z,27.30
2018-03-11T22:47:16.389Z,25.98
2018-03-11T22:49:47.541Z,23.12
2018-03-11T22:52:18.228Z,23.92
2018-03-11T22:54:49.249Z,21.15
2018-03-11T22:57:20.144Z,23.92
2018-03-11T22:59:50.759Z,25.70
2018-03-11T23:02:21.393Z,23.35
2018-03-11T23:04:52.307Z,28.73
2018-03-11T23:07:23.977Z,27.22
2018-03-11T23:09:54.876Z,28.46
2018-03-11T23:12:25.516Z,30.08
2018-03-11T23:14:56.025Z,33.36
2018-03-11T23:17:26.512Z,36.02
2018-03-11T23:19:58.192Z,34.26
2018-03-11T23:22:28.509Z,34.40
2018-03-11T23:24:59.224Z,33.92
2018-03-11T23:27:29.043Z,34.83
2018-03-11T23:29:59.832Z,35.25
2018-03-11T23:32:31.217Z,37.88
2018-03-11T23:35:02.212Z,38.30
2018-03-11T23:37:33.927Z,38.58
2018-03-11T23:40:04.609Z,37.95
2018-03-11T23:42:35.735Z,39.60
2018-03-11T23:45:06.355Z,35.60
2018-03-11T23:47:40.800Z,36.42
2018-03-11T23:50:09.776Z,41.30
2018-03-11T23:52:38.899Z,37.46
2018-03-11T23:55:09.073Z,37.07
2018-03-11T23:57:45.029Z,37.83
